Bighill, Kentucky
Current Conditions -  °F | °C
As of 7:35 AM on Monday 26 Jan 2015 (Local Time) from KI39 Reporting Station
Overcast Overcast  
Wind Chill: 16°   Ceiling: 600
Heat Index: 27°   Visibility: 1.7mi
Dew Point: 25°   Wind: 12mph
Humidity: 93%   Direction: 310°NW
Pressure: 29.8"   Gusts: 18mph
Location:  37.55°N, 84.21°W
Report Text: KI39 261235Z AUTO 31010G16KT 1 3/4SM OVC006 M03/M04 A2980 RMK AO2
Loading
Personal Weather Stations






























Interactive Weather Map New forecast layout! Learn more

10-Day Weather Forecast

Advertisements
Track Severe Weather on mobile